Time;durP1;ratioP1;P1;durP2;ratioP2;P2;SDS_P1;SDS_P2;PMS_P1;PMS_P2;Temp;Humidity;BMP_temperature;BMP_pressure;BME280_temperature;BME280_humidity;BME280_pressure;Samples;Min_cycle;Max_cycle;Signal;HPM_P1;HPM_P2
2023/01/05 00:00:14;;;;;;;331.45;110.38;;;;;;;6.38;88.10;99782.94;5085674;28;20044;-67
2023/01/05 00:03:04;;;;;;;283.05;103.40;;;;;;;6.58;87.50;99793.31;5066929;28;20036;-65
2023/01/05 00:05:46;;;;;;;339.42;108.38;;;;;;;6.33;87.16;99797.34;5081145;28;20068;-65
2023/01/05 00:08:35;;;;;;;275.25;101.65;;;;;;;6.46;87.73;99804.13;5086683;28;20048;-66
2023/01/05 00:23:39;;;;;;;281.15;99.45;;;;;;;6.31;87.03;99822.97;5085900;28;20051;-65
2023/01/05 00:26:28;;;;;;;303.73;99.03;;;;;;;6.14;87.49;99826.28;5084007;28;20617;-66
2023/01/05 00:29:23;;;;;;;266.58;95.03;;;;;;;6.24;87.79;99829.72;5085901;28;20051;-64
2023/01/05 00:31:59;;;;;;;244.38;91.05;;;;;;;6.35;87.12;99830.56;5076461;28;20076;-65
2023/01/05 00:34:54;;;;;;;237.27;91.05;;;;;;;6.42;87.21;99837.78;5054709;28;20080;-64
2023/01/05 00:37:32;;;;;;;321.73;94.90;;;;;;;6.21;85.99;99832.63;5082335;28;20055;-65
2023/01/05 00:40:22;;;;;;;257.00;92.20;;;;;;;6.29;86.29;99838.03;5059238;28;20063;-65
2023/01/05 00:43:10;;;;;;;270.98;91.78;;;;;;;6.11;86.58;99841.47;5070662;28;20517;-65
2023/01/05 00:45:59;;;;;;;295.63;93.43;;;;;;;5.96;87.16;99846.31;5068892;28;20783;-65
2023/01/05 00:48:48;;;;;;;314.42;91.82;;;;;;;5.93;87.40;99848.38;5065197;28;20509;-65
2023/01/05 00:51:37;;;;;;;252.68;89.72;;;;;;;6.33;87.32;99849.94;5081640;28;20143;-64
2023/01/05 00:54:19;;;;;;;267.08;93.78;;;;;;;6.43;87.16;99854.38;5074318;28;20048;-65
2023/01/05 00:57:13;;;;;;;265.00;93.00;;;;;;;6.22;86.62;99859.78;5065472;28;20122;-66
2023/01/05 01:00:00;;;;;;;320.10;95.40;;;;;;;6.13;86.41;99873.75;5048852;28;20131;-65
2023/01/05 01:02:57;;;;;;;437.77;100.55;;;;;;;6.01;86.43;99880.94;5067070;28;20042;-65
2023/01/05 01:05:33;;;;;;;336.10;95.93;;;;;;;5.88;87.52;99877.72;5075519;28;20078;-65
2023/01/05 01:08:21;;;;;;;321.33;98.18;;;;;;;5.90;87.44;99883.66;5046943;28;20041;-64
2023/01/05 01:11:08;;;;;;;312.77;100.05;;;;;;;5.92;88.25;99873.84;5049139;28;20051;-65
2023/01/05 01:13:57;;;;;;;300.05;96.45;;;;;;;6.02;88.55;99877.31;5083392;28;20105;-66
2023/01/05 01:16:41;;;;;;;292.35;98.05;;;;;;;6.35;88.51;99888.44;5084374;28;20044;-66
2023/01/05 01:19:30;;;;;;;393.17;116.80;;;;;;;6.21;87.06;99893.13;5080630;28;20056;-61
2023/01/05 01:22:13;;;;;;;380.10;111.35;;;;;;;5.89;87.51;99900.38;5073306;28;20048;-60
2023/01/05 01:25:07;;;;;;;411.30;108.28;;;;;;;5.78;87.70;99901.28;5084153;28;20044;-61
2023/01/05 01:27:43;;;;;;;287.83;105.85;;;;;;;6.20;88.00;99903.78;5046658;28;20044;-60
2023/01/05 01:30:31;;;;;;;330.10;104.90;;;;;;;6.14;88.36;99906.97;5075205;28;20148;-60
2023/01/05 01:33:14;;;;;;;339.88;106.82;;;;;;;5.98;88.48;99910.09;5073823;28;20777;-60
2023/01/05 01:36:04;;;;;;;354.33;103.65;;;;;;;6.20;87.82;99914.31;5071335;28;20051;-61
2023/01/05 01:38:46;;;;;;;;;;;;;;;6.14;87.78;99910.44;5085244;28;20080;-61
2023/01/05 01:41:46;;;;;;;323.15;94.97;;;;;;;5.97;87.13;99916.34;5065493;28;19990;-60
2023/01/05 01:44:47;;;;;;;314.80;98.63;;;;;;;5.98;87.40;99910.09;5063279;28;20106;-61
2023/01/05 01:47:54;;;;;;;276.13;93.82;;;;;;;6.05;87.48;99908.63;5066595;28;20443;-62
2023/01/05 01:50:56;;;;;;;268.80;94.97;;;;;;;6.18;87.53;99913.63;5078825;28;20480;-62
2023/01/05 01:53:54;;;;;;;312.88;94.05;;;;;;;5.99;87.60;99911.75;5083907;28;20042;-61
2023/01/05 01:57:00;;;;;;;248.82;92.65;;;;;;;6.07;87.96;99911.91;5084308;28;20419;-62
2023/01/05 01:59:50;;;;;;;237.70;89.85;;;;;;;6.18;86.98;99905.72;5046218;28;20045;-61
2023/01/05 02:02:34;;;;;;;267.10;94.03;;;;;;;5.97;87.44;99918.97;5060402;28;20048;-62
2023/01/05 02:05:31;;;;;;;265.55;91.15;;;;;;;5.96;87.40;99909.41;5063049;28;20110;-61
2023/01/05 02:08:30;;;;;;;259.20;89.88;;;;;;;5.98;87.63;99917.16;5073627;28;20485;-61
2023/01/05 02:11:43;;;;;;;299.52;88.22;;;;;;;5.96;87.28;99909.41;5083772;28;20105;-62
2023/01/05 02:14:47;;;;;;;238.20;88.32;;;;;;;6.02;87.78;99922.00;5063005;28;20041;-62
2023/01/05 02:18:21;;;;;;;236.55;86.03;;;;;;;6.03;87.74;99923.69;5050775;28;20032;-61
2023/01/05 02:21:16;;;;;;;246.15;83.95;;;;;;;5.95;87.26;99933.19;5063606;28;20479;-62
2023/01/05 02:24:49;;;;;;;239.68;84.90;;;;;;;5.90;87.60;99946.75;5053255;28;20393;-60
2023/01/05 02:27:41;;;;;;;233.35;81.85;;;;;;;5.94;88.14;99944.66;5065740;28;20048;-61
2023/01/05 02:31:02;;;;;;;258.02;79.07;;;;;;;5.75;87.69;99945.41;5062456;28;20102;-61
2023/01/05 02:34:15;;;;;;;226.98;77.68;;;;;;;5.93;88.08;99953.53;5065658;28;20048;-62
2023/01/05 02:37:20;;;;;;;210.02;80.22;;;;;;;5.96;87.59;99951.47;5043484;28;20742;-61
2023/01/05 02:40:01;;;;;;;226.68;78.78;;;;;;;5.97;88.11;99960.19;5057554;28;20075;-62
2023/01/05 02:43:00;;;;;;;217.05;76.78;;;;;;;6.07;87.55;99959.25;5083691;28;20040;-61
2023/01/05 02:45:36;;;;;;;243.00;77.47;;;;;;;5.72;86.68;99966.69;5081360;28;20048;-61
2023/01/05 02:48:31;;;;;;;208.45;79.05;;;;;;;6.13;87.84;99966.63;5050737;28;20143;-61
2023/01/05 02:51:15;;;;;;;205.98;78.97;;;;;;;6.00;87.37;99970.44;5060803;28;20045;-61
2023/01/05 02:54:55;;;;;;;219.57;77.78;;;;;;;6.01;87.50;99975.59;5057130;28;20063;-62
2023/01/05 02:57:51;;;;;;;210.98;78.15;;;;;;;5.90;87.62;99991.44;5046156;28;20160;-61
2023/01/05 03:00:52;;;;;;;207.10;73.07;;;;;;;5.70;87.38;99989.66;5054889;28;20048;-61
2023/01/05 03:03:48;;;;;;;244.20;73.43;;;;;;;5.66;88.00;99991.72;5043117;28;20503;-62
2023/01/05 03:06:46;;;;;;;232.48;72.47;;;;;;;5.74;88.58;100002.41;5060373;28;20052;-61
2023/01/05 03:09:37;;;;;;;213.52;72.88;;;;;;;5.82;87.87;99999.13;5059966;28;20048;-62
2023/01/05 03:15:40;;;;;;;186.52;71.53;;;;;;;6.09;88.11;100004.69;5058353;28;20032;-62
2023/01/05 03:18:31;;;;;;;216.73;74.72;;;;;;;6.04;87.63;100006.03;5075981;28;20059;-62
2023/01/05 03:21:21;;;;;;;204.10;75.90;;;;;;;5.95;87.63;100014.69;5061664;28;20052;-61
2023/01/05 03:37:48;;;;;;;186.48;72.82;;;;;;;5.89;88.27;100038.91;5058022;28;20727;-62
2023/01/05 03:40:43;;;;;;;215.82;75.63;;;;;;;5.94;87.83;100037.53;5075019;28;20052;-62
2023/01/05 03:43:26;;;;;;;200.55;78.22;;;;;;;5.96;87.68;100043.50;5057300;28;20146;-62
2023/01/05 03:46:25;;;;;;;235.70;79.65;;;;;;;5.85;87.34;100044.38;5059064;28;20140;-62
2023/01/05 03:49:07;;;;;;;246.63;77.60;;;;;;;5.86;88.34;100047.84;5084101;28;20047;-62
2023/01/05 03:51:57;;;;;;;217.20;78.55;;;;;;;5.78;87.84;100045.84;5062535;28;20040;-60
2023/01/05 03:54:39;;;;;;;245.20;80.45;;;;;;;5.84;87.73;100047.16;5069259;28;20048;-61
2023/01/05 03:57:28;;;;;;;212.20;83.93;;;;;;;6.22;88.42;100052.63;5049779;28;20476;-61
2023/01/05 04:00:11;;;;;;;211.48;81.15;;;;;;;6.31;87.76;100054.47;5066354;28;20047;-63
2023/01/05 04:03:09;;;;;;;229.43;81.97;;;;;;;6.36;86.70;100056.72;5060003;28;20044;-61
2023/01/05 04:05:52;;;;;;;273.05;86.43;;;;;;;6.23;86.94;100059.56;5065376;28;20059;-62
2023/01/05 04:08:44;;;;;;;216.18;82.47;;;;;;;6.16;87.29;100068.94;5057012;28;20671;-61
2023/01/05 04:11:32;;;;;;;231.25;81.68;;;;;;;6.29;86.96;100077.44;5067544;28;20757;-62
2023/01/05 04:14:22;;;;;;;204.57;81.57;;;;;;;6.46;87.06;100081.25;5068443;28;20048;-62
2023/01/05 04:17:05;;;;;;;230.25;84.55;;;;;;;6.32;86.22;100086.88;5048740;28;20044;-62
2023/01/05 04:19:54;;;;;;;200.88;81.40;;;;;;;6.40;86.23;100087.03;5056224;28;20083;-62
2023/01/05 04:22:43;;;;;;;218.23;85.10;;;;;;;6.28;86.11;100085.47;5053491;28;20052;-61
2023/01/05 04:25:32;;;;;;;200.90;79.32;;;;;;;6.29;86.91;100100.28;5061284;28;20055;-61
2023/01/05 04:28:22;;;;;;;204.02;81.38;;;;;;;6.30;87.28;100109.84;5049354;28;20686;-62
2023/01/05 04:31:11;;;;;;;201.55;81.13;;;;;;;6.41;87.47;100101.88;5058761;28;20048;-62
2023/01/05 04:34:02;;;;;;;209.45;82.20;;;;;;;6.36;87.01;100101.44;5059000;28;20048;-62
2023/01/05 04:36:51;;;;;;;210.18;83.75;;;;;;;6.64;86.84;100105.97;5054077;28;20133;-62
2023/01/05 04:39:35;;;;;;;219.35;82.70;;;;;;;6.77;86.57;100098.66;5060297;28;20063;-61
2023/01/05 04:42:25;;;;;;;200.07;82.18;;;;;;;6.70;85.95;100102.81;5057755;28;20055;-62
2023/01/05 04:45:22;;;;;;;209.43;84.75;;;;;;;6.88;87.09;100112.72;5062311;28;20052;-61
2023/01/05 04:47:59;;;;;;;206.10;82.85;;;;;;;6.80;86.03;100121.28;5054163;28;20044;-63
2023/01/05 04:50:53;;;;;;;219.77;87.32;;;;;;;6.86;86.03;100115.47;5048443;28;20059;-62
2023/01/05 04:53:39;;;;;;;221.20;90.53;;;;;;;6.78;86.09;100120.56;5044625;28;20051;-62
2023/01/05 04:56:30;;;;;;;204.25;87.18;;;;;;;6.81;86.12;100116.84;5063083;28;20040;-61
2023/01/05 04:59:14;;;;;;;230.98;89.72;;;;;;;6.69;86.24;100116.09;5058269;28;20130;-62
2023/01/05 05:02:07;;;;;;;;;;;;;;;7.14;85.77;100112.06;5061020;28;20432;-62
2023/01/05 05:04:50;;;;;;;223.07;87.20;;;;;;;7.06;85.33;100108.47;5054990;28;20019;-62
2023/01/05 05:07:40;;;;;;;227.18;89.22;;;;;;;6.94;85.75;100110.38;5078635;28;20040;-61
2023/01/05 05:10:33;;;;;;;213.63;87.63;;;;;;;7.07;86.19;100110.13;5052798;28;20052;-62
2023/01/05 05:13:15;;;;;;;224.75;88.53;;;;;;;7.10;86.30;100110.69;5075269;28;20048;-61
2023/01/05 05:16:06;;;;;;;234.13;93.00;;;;;;;6.97;86.06;100112.75;5067542;28;20044;-62
2023/01/05 05:18:51;;;;;;;250.52;95.25;;;;;;;6.97;86.03;100115.38;5056516;28;20049;-61
2023/01/05 05:21:41;;;;;;;251.50;94.82;;;;;;;7.09;86.10;100116.06;5059013;28;20040;-62
2023/01/05 05:24:23;;;;;;;240.95;96.90;;;;;;;7.10;85.86;100115.94;5075951;28;20129;-61
2023/01/05 05:27:13;;;;;;;226.15;92.63;;;;;;;7.29;85.99;100114.31;5057154;28;20043;-61
2023/01/05 05:29:55;;;;;;;227.55;92.72;;;;;;;7.33;85.33;100111.28;5073598;28;20138;-61
2023/01/05 05:32:44;;;;;;;223.13;95.43;;;;;;;7.29;85.42;100115.16;5072794;28;20125;-62
2023/01/05 05:35:26;;;;;;;247.80;99.72;;;;;;;7.01;85.17;100113.28;5070901;27;20041;-61
2023/01/05 05:38:15;;;;;;;237.98;98.82;;;;;;;7.17;85.62;100122.34;5065511;28;20044;-63
2023/01/05 05:40:57;;;;;;;247.30;95.47;;;;;;;7.46;85.25;100114.47;5077333;28;20036;-63
2023/01/05 05:43:47;;;;;;;253.32;97.60;;;;;;;7.37;85.05;100106.56;5055540;28;20040;-62
2023/01/05 05:46:29;;;;;;;243.73;97.18;;;;;;;7.51;84.89;100106.16;5068192;28;20052;-61
2023/01/05 05:49:17;;;;;;;256.83;98.90;;;;;;;7.92;83.57;100105.03;5073688;28;20656;-61
2023/01/05 05:51:59;;;;;;;233.05;97.47;;;;;;;7.58;83.60;100099.34;5071224;28;20533;-60
2023/01/05 05:54:48;;;;;;;243.05;96.68;;;;;;;8.03;82.40;100092.50;5076952;28;20040;-61
2023/01/05 05:57:30;;;;;;;246.77;97.53;;;;;;;7.92;83.32;100083.94;5082766;28;20044;-60
2023/01/05 06:00:20;;;;;;;256.83;106.05;;;;;;;7.79;83.12;100084.19;5073722;28;20056;-60
2023/01/05 06:03:02;;;;;;;;;;;;;;;7.86;83.51;100085.31;5074493;28;20675;-60
2023/01/05 06:05:50;;;;;;;248.23;101.43;;;;;;;8.07;82.30;100075.41;5080681;28;20489;-60
2023/01/05 06:08:32;;;;;;;253.95;101.82;;;;;;;7.98;82.72;100073.63;5079324;28;20370;-57
2023/01/05 06:11:21;;;;;;;260.48;101.53;;;;;;;8.14;82.94;100067.78;5068506;28;20468;-59
2023/01/05 06:14:05;;;;;;;245.93;101.93;;;;;;;8.21;82.62;100070.66;5067143;28;20048;-58
2023/01/05 06:16:53;;;;;;;239.38;98.47;;;;;;;8.29;81.66;100069.00;5037858;28;20040;-60
2023/01/05 06:19:35;;;;;;;251.43;101.97;;;;;;;8.38;82.55;100067.28;5071551;28;20059;-58
2023/01/05 06:22:24;;;;;;;255.63;103.50;;;;;;;8.36;81.89;100056.91;5076467;28;20048;-59
2023/01/05 06:25:15;;;;;;;247.60;104.27;;;;;;;8.51;81.30;100065.16;4989715;28;10000903;-61
2023/01/05 06:28:06;;;;;;;239.10;99.70;;;;;;;8.45;81.60;100058.63;5075229;28;20259;-59
2023/01/05 06:30:47;;;;;;;243.52;99.00;;;;;;;8.37;81.72;100049.78;5064704;28;20622;-59
2023/01/05 06:33:36;;;;;;;260.70;101.45;;;;;;;8.63;81.45;100042.84;5069994;28;20051;-59
2023/01/05 06:36:18;;;;;;;268.88;104.85;;;;;;;8.59;80.35;100038.84;5057216;28;20049;-60
2023/01/05 06:39:07;;;;;;;243.45;99.97;;;;;;;8.82;81.42;100039.28;5059943;28;20159;-60
2023/01/05 06:42:02;;;;;;;243.55;99.50;;;;;;;8.98;79.57;100034.97;5083392;28;20051;-59
2023/01/05 06:44:57;;;;;;;218.05;95.10;;;;;;;9.01;79.36;100028.59;5069158;28;20057;-61
2023/01/05 06:47:33;;;;;;;218.75;94.85;;;;;;;8.74;79.15;100034.72;5074081;28;20055;-60
2023/01/05 06:50:27;;;;;;;217.40;97.15;;;;;;;8.75;79.25;100022.38;5073017;28;20061;-58
2023/01/05 06:53:03;;;;;;;217.30;93.97;;;;;;;9.08;78.69;100034.09;5075272;28;20044;-61
2023/01/05 06:55:58;;;;;;;218.50;96.35;;;;;;;9.25;77.88;100033.28;5063830;28;20479;-59
2023/01/05 06:58:34;;;;;;;248.48;103.68;;;;;;;9.36;77.63;100027.75;5056978;28;20040;-61
2023/01/05 07:01:29;;;;;;;242.82;106.18;;;;;;;9.62;77.97;100031.28;5071406;28;20051;-60
2023/01/05 07:04:05;;;;;;;241.93;104.90;;;;;;;9.98;76.04;100018.78;5060599;28;20037;-59
2023/01/05 07:07:00;;;;;;;245.77;104.57;;;;;;;10.16;75.18;100011.66;5069862;28;20044;-62
2023/01/05 07:09:36;;;;;;;264.52;109.53;;;;;;;10.16;74.66;100005.53;5079313;28;20195;-60
2023/01/05 07:12:31;;;;;;;256.35;109.68;;;;;;;10.29;75.24;100003.28;5049287;28;20040;-61
2023/01/05 07:15:08;;;;;;;269.83;114.53;;;;;;;10.28;74.20;99998.97;5052107;28;20048;-60
2023/01/05 07:18:02;;;;;;;263.35;112.75;;;;;;;10.31;74.14;100001.31;5065464;28;20068;-60
2023/01/05 07:20:38;;;;;;;261.95;113.72;;;;;;;10.80;73.85;99989.84;5044099;28;20048;-62
2023/01/05 07:23:36;;;;;;;293.55;124.13;;;;;;;10.88;73.25;99986.41;5062251;28;20813;-60
2023/01/05 07:26:12;;;;;;;304.10;130.85;;;;;;;11.31;72.50;99980.00;5061450;28;20150;-61
2023/01/05 07:29:01;;;;;;;310.23;132.93;;;;;;;11.61;71.30;99979.31;5067508;28;20135;-60
2023/01/05 07:31:43;;;;;;;317.35;134.48;;;;;;;11.63;70.44;99971.19;5061747;28;20106;-61
2023/01/05 07:34:38;;;;;;;330.60;139.63;;;;;;;11.67;71.16;99964.53;5068256;28;20137;-60
2023/01/05 07:37:35;;;;;;;329.42;137.77;;;;;;;11.56;70.18;99956.91;5068143;28;20071;-60
2023/01/05 07:40:24;;;;;;;334.38;138.80;;;;;;;11.49;69.62;99948.81;5055272;28;20060;-62
2023/01/05 07:43:06;;;;;;;335.77;138.93;;;;;;;11.75;69.73;99956.59;5069677;28;20059;-61
2023/01/05 07:45:55;;;;;;;309.25;136.02;;;;;;;11.76;69.69;99955.59;5071896;28;20126;-62
2023/01/05 07:48:40;;;;;;;316.05;135.85;;;;;;;11.79;68.41;99944.63;5069539;28;20102;-60
2023/01/05 07:51:29;;;;;;;320.92;136.40;;;;;;;11.68;68.09;99939.66;5070075;28;20052;-61
2023/01/05 07:54:26;;;;;;;310.98;134.75;;;;;;;11.80;68.71;99932.19;5069746;28;20643;-61
2023/01/05 07:57:02;;;;;;;333.38;143.52;;;;;;;11.92;68.78;99933.47;5067678;28;20040;-63
2023/01/05 07:59:51;;;;;;;326.42;149.15;;;;;;;11.91;67.18;99939.78;5071649;28;20464;-59
2023/01/05 08:02:49;;;;;;;327.27;145.93;;;;;;;12.18;68.93;99934.03;5069817;28;20040;-60
2023/01/05 08:05:33;;;;;;;332.35;148.02;;;;;;;11.97;67.76;99929.31;5072998;28;20484;-60
2023/01/05 08:08:21;;;;;;;339.63;148.63;;;;;;;12.01;66.97;99932.47;5082921;28;20127;-62
2023/01/05 08:11:06;;;;;;;347.40;151.70;;;;;;;11.93;66.88;99937.81;5072111;28;20155;-60
2023/01/05 08:14:03;;;;;;;345.13;151.70;;;;;;;11.80;68.16;99925.06;5054568;28;20040;-60
2023/01/05 08:16:45;;;;;;;349.63;152.07;;;;;;;11.77;67.70;99927.25;5058231;28;20082;-60
2023/01/05 08:19:34;;;;;;;351.20;154.88;;;;;;;11.87;67.65;99925.19;5078600;28;20051;-60
2023/01/05 08:22:23;;;;;;;348.10;150.43;;;;;;;12.00;66.37;99909.56;5066702;28;20185;-61
2023/01/05 08:25:05;;;;;;;356.20;155.15;;;;;;;11.66;67.38;99913.28;5076065;28;20143;-60
2023/01/05 08:28:02;;;;;;;360.10;148.98;;;;;;;11.88;66.97;99905.63;5071937;28;20134;-60
2023/01/05 08:30:37;;;;;;;377.52;150.57;;;;;;;11.79;67.50;99907.47;5068866;28;20097;-60
2023/01/05 08:33:27;;;;;;;377.33;153.30;;;;;;;12.07;66.61;99911.38;5071162;28;20052;-60
2023/01/05 08:36:25;;;;;;;357.85;147.85;;;;;;;11.98;66.92;99909.75;5079175;28;20145;-60
2023/01/05 08:39:20;;;;;;;369.40;152.18;;;;;;;11.41;67.46;99909.03;5042084;28;20060;-60
2023/01/05 08:41:56;;;;;;;361.15;154.13;;;;;;;11.78;67.60;99902.34;5062101;28;20040;-61
2023/01/05 08:44:51;;;;;;;370.70;154.18;;;;;;;12.12;66.33;99897.59;5070368;28;20498;-60
2023/01/05 08:47:27;;;;;;;369.45;151.07;;;;;;;12.29;65.79;99885.88;5085984;28;20100;-61
2023/01/05 08:50:22;;;;;;;341.38;147.85;;;;;;;12.40;66.12;99885.47;5082475;28;20101;-61
2023/01/05 08:52:59;;;;;;;367.70;151.00;;;;;;;12.50;66.05;99875.44;5078913;28;20051;-62
2023/01/05 08:55:47;;;;;;;359.70;150.63;;;;;;;12.20;65.93;99883.44;5081518;28;20058;-61
2023/01/05 08:58:30;;;;;;;368.00;150.43;;;;;;;12.22;66.26;99881.41;5086455;28;20132;-60
2023/01/05 09:01:25;;;;;;;353.40;150.43;;;;;;;12.44;66.42;99876.13;5081895;28;20043;-60
2023/01/05 09:04:01;;;;;;;348.55;147.50;;;;;;;12.51;65.63;99878.94;5080355;28;20054;-63
2023/01/05 09:06:56;;;;;;;365.75;149.98;;;;;;;12.54;65.58;99871.44;5079171;28;20040;-60
2023/01/05 09:09:32;;;;;;;342.70;144.77;;;;;;;12.61;65.31;99875.03;5072540;28;20052;-63
2023/01/05 09:12:21;;;;;;;343.70;148.50;;;;;;;12.62;64.99;99867.88;5074200;28;20068;-59
2023/01/05 09:15:11;;;;;;;325.50;139.55;;;;;;;12.54;64.48;99874.09;5056381;28;20052;-61
2023/01/05 09:18:00;;;;;;;342.20;142.10;;;;;;;12.55;64.99;99869.59;5057848;28;20040;-60
2023/01/05 09:20:49;;;;;;;318.10;135.18;;;;;;;12.42;64.79;99869.34;5064871;28;20044;-59
2023/01/05 09:23:39;;;;;;;316.52;132.57;;;;;;;12.52;64.06;99873.41;5070033;28;20060;-61
2023/01/05 09:26:21;;;;;;;335.83;134.80;;;;;;;12.63;64.99;99869.53;5071070;28;20611;-60
2023/01/05 09:29:11;;;;;;;311.08;132.27;;;;;;;12.63;64.36;99869.53;5068852;28;20052;-59
2023/01/05 09:32:00;;;;;;;281.55;126.32;;;;;;;12.74;64.66;99871.81;5070509;28;20036;-60
2023/01/05 09:34:56;;;;;;;284.83;126.25;;;;;;;12.52;64.12;99870.75;5069760;28;20699;-59
2023/01/05 09:37:52;;;;;;;286.33;124.55;;;;;;;12.53;64.37;99872.44;5073325;28;20102;-59
2023/01/05 09:40:43;;;;;;;278.85;120.20;;;;;;;12.89;63.75;99874.50;5067643;28;20071;-60
2023/01/05 09:43:35;;;;;;;289.77;124.57;;;;;;;13.03;63.78;99871.06;5071586;28;20079;-59
2023/01/05 09:46:34;;;;;;;275.60;120.73;;;;;;;13.13;64.30;99870.84;5065648;28;20125;-61
2023/01/05 09:49:27;;;;;;;260.02;117.50;;;;;;;12.89;63.61;99864.69;5058412;28;20538;-59
2023/01/05 09:52:11;;;;;;;268.65;117.60;;;;;;;12.67;63.71;99856.72;5070221;28;20744;-61
2023/01/05 09:54:59;;;;;;;254.65;118.35;;;;;;;12.71;64.59;99856.19;5071135;28;20543;-59
2023/01/05 09:57:57;;;;;;;275.02;120.13;;;;;;;12.83;66.17;99857.44;5074427;28;20483;-62
2023/01/05 10:00:49;;;;;;;266.27;120.13;;;;;;;12.83;65.58;99843.31;5054941;28;20535;-61
2023/01/05 10:03:39;;;;;;;281.05;122.50;;;;;;;12.92;65.96;99850.22;5070229;28;20430;-59
2023/01/05 10:06:49;;;;;;;274.90;121.78;;;;;;;12.98;67.15;99844.16;5070118;28;20117;-59
2023/01/05 10:09:39;;;;;;;273.40;127.25;;;;;;;12.91;67.43;99841.41;5067160;28;20047;-61
2023/01/05 10:15:59;;;;;;;266.73;122.68;;;;;;;13.00;67.46;99832.38;5059293;28;20040;-60
2023/01/05 10:18:36;;;;;;;259.08;121.55;;;;;;;13.04;66.87;99831.00;5052298;28;20040;-62
2023/01/05 10:21:47;;;;;;;266.05;121.68;;;;;;;12.95;67.94;99820.59;5067419;28;20163;-62
2023/01/05 10:24:29;;;;;;;;;;;;;;;12.86;68.69;99821.69;5055705;28;20365;-58
2023/01/05 10:27:32;;;;;;;252.15;118.25;;;;;;;12.81;68.58;99824.88;5049927;28;19928;-61
2023/01/05 10:30:32;;;;;;;257.77;122.40;;;;;;;12.78;68.81;99817.28;5049491;28;20151;-61
2023/01/05 10:33:36;;;;;;;284.85;131.35;;;;;;;12.57;67.96;99820.56;5057773;28;20048;-59
2023/01/05 10:37:05;;;;;;;287.88;133.85;;;;;;;12.56;68.38;99821.59;5061397;28;20051;-60
2023/01/05 10:40:37;;;;;;;287.35;130.32;;;;;;;12.69;68.27;99820.16;5040275;28;20048;-60
2023/01/05 10:43:30;;;;;;;279.58;126.53;;;;;;;12.46;66.65;99818.34;5060473;28;20048;-61
2023/01/05 10:46:20;;;;;;;279.05;124.65;;;;;;;12.54;67.02;99820.94;5059462;28;20530;-61
2023/01/05 10:49:25;;;;;;;270.90;121.93;;;;;;;12.80;65.41;99806.44;5057917;28;20076;-61
2023/01/05 10:52:16;;;;;;;282.98;125.10;;;;;;;12.57;65.68;99807.28;5058945;28;20157;-61
2023/01/05 10:55:07;;;;;;;422.35;181.93;;;;;;;12.31;68.94;99811.31;5044332;28;20049;-61
2023/01/05 10:57:49;;;;;;;436.55;194.00;;;;;;;12.45;69.41;99808.72;5043993;28;20108;-61
2023/01/05 11:00:47;;;;;;;435.25;189.82;;;;;;;12.71;68.66;99803.03;5060752;28;20068;-61
2023/01/05 11:03:40;;;;;;;450.02;197.68;;;;;;;12.80;68.07;99799.28;5061192;28;20118;-61
2023/01/05 11:06:48;;;;;;;447.35;202.25;;;;;;;12.83;67.91;99800.78;5057839;28;20056;-61
2023/01/05 11:09:31;;;;;;;438.95;196.52;;;;;;;12.78;68.45;99805.81;5056324;28;20148;-61
2023/01/05 11:12:25;;;;;;;432.40;193.63;;;;;;;12.74;68.48;99800.03;5051746;28;20136;-62
2023/01/05 11:15:14;;;;;;;309.77;129.55;;;;;;;12.18;67.38;99798.59;5056064;28;20052;-60
2023/01/05 11:18:04;;;;;;;310.13;127.25;;;;;;;12.06;68.33;99807.97;5055838;28;20055;-59
2023/01/05 11:21:20;;;;;;;295.60;126.88;;;;;;;12.09;68.59;99803.16;5058590;28;20467;-61
2023/01/05 11:23:58;;;;;;;296.42;122.10;;;;;;;11.94;68.78;99814.69;5033654;28;20334;-59
2023/01/05 11:26:52;;;;;;;286.48;125.05;;;;;;;11.90;68.58;99803.59;5062960;28;20699;-62
2023/01/05 11:29:41;;;;;;;284.17;121.03;;;;;;;12.09;68.07;99800.47;5063312;28;20125;-60
2023/01/05 11:32:30;;;;;;;292.63;125.20;;;;;;;12.03;68.21;99803.84;5058224;28;20506;-61
2023/01/05 11:35:36;;;;;;;289.35;122.85;;;;;;;12.11;68.69;99803.81;5057980;28;20052;-62
2023/01/05 11:38:25;;;;;;;284.75;121.05;;;;;;;12.04;69.73;99815.28;5047523;28;20408;-61
2023/01/05 11:41:17;;;;;;;282.38;124.22;;;;;;;12.05;69.49;99807.16;5066299;28;20048;-62
2023/01/05 11:44:02;;;;;;;307.80;131.00;;;;;;;11.68;69.83;99809.66;5065075;28;20055;-59
2023/01/05 11:46:50;;;;;;;301.40;127.32;;;;;;;11.58;69.70;99809.84;5051888;28;20076;-62
2023/01/05 11:49:39;;;;;;;306.23;129.18;;;;;;;11.40;70.81;99811.88;5064129;28;20098;-62
2023/01/05 11:52:52;;;;;;;314.42;129.40;;;;;;;11.43;71.28;99811.53;5058887;28;20049;-60
2023/01/05 11:55:48;;;;;;;317.08;132.70;;;;;;;11.26;71.03;99809.94;5051840;28;20060;-61
2023/01/05 11:58:26;;;;;;;319.13;132.75;;;;;;;11.35;72.33;99816.88;5064339;28;20132;-62
2023/01/05 12:01:39;;;;;;;326.20;133.80;;;;;;;11.15;72.66;99827.00;5062785;28;20143;-60
2023/01/05 12:04:55;;;;;;;347.65;140.73;;;;;;;11.09;72.92;99835.66;5059823;28;20479;-61
2023/01/05 12:08:00;;;;;;;356.50;146.82;;;;;;;11.01;72.40;99834.84;5062509;28;20051;-59
2023/01/05 12:11:14;;;;;;;374.40;154.93;;;;;;;10.82;73.17;99839.50;5063201;28;20594;-62
2023/01/05 12:14:23;;;;;;;374.55;148.43;;;;;;;10.98;73.00;99845.75;5061325;28;20047;-61
2023/01/05 12:17:11;;;;;;;358.92;151.68;;;;;;;10.89;73.34;99844.13;5059603;28;20041;-64
2023/01/05 12:20:06;;;;;;;368.15;153.15;;;;;;;10.95;73.10;99846.94;5042426;28;20620;-59
2023/01/05 12:23:19;;;;;;;372.48;154.55;;;;;;;10.68;73.44;99848.09;5061038;28;20054;-60
2023/01/05 12:26:27;;;;;;;373.98;154.20;;;;;;;10.83;74.04;99850.91;5060530;28;20055;-57
2023/01/05 12:29:34;;;;;;;366.25;153.68;;;;;;;10.89;73.19;99855.53;5060649;28;20048;-58
2023/01/05 12:33:06;;;;;;;382.50;153.52;;;;;;;10.82;73.63;99857.22;5060933;28;20041;-60
2023/01/05 12:36:37;;;;;;;348.13;147.40;;;;;;;10.64;74.17;99853.88;5043685;28;20037;-59
2023/01/05 12:39:35;;;;;;;349.60;145.35;;;;;;;10.61;74.70;99868.31;5042206;28;20136;-61
2023/01/05 12:42:48;;;;;;;349.30;141.75;;;;;;;10.71;75.30;99871.59;5044532;28;20117;-59
2023/01/05 12:45:56;;;;;;;323.38;134.80;;;;;;;10.79;75.24;99878.75;5032788;28;20372;-59
2023/01/05 12:48:49;;;;;;;304.40;131.40;;;;;;;10.80;74.82;99865.31;5048659;28;20060;-61
2023/01/05 12:51:46;;;;;;;295.35;128.68;;;;;;;10.78;74.83;99880.56;5057831;28;20056;-55
2023/01/05 12:54:45;;;;;;;290.98;128.85;;;;;;;10.82;74.38;99876.59;5066506;28;20133;-54
2023/01/05 12:57:35;;;;;;;294.50;127.22;;;;;;;10.55;75.39;99879.53;5026922;28;20041;-53
2023/01/05 13:00:27;;;;;;;278.65;126.10;;;;;;;10.59;75.06;99891.47;5054561;28;20048;-52
2023/01/05 13:03:27;;;;;;;296.02;126.65;;;;;;;10.58;75.38;99895.09;5024702;28;20070;-62
2023/01/05 13:06:25;;;;;;;296.25;129.68;;;;;;;10.65;75.16;99897.94;5055953;28;20194;-58
2023/01/05 13:09:20;;;;;;;285.60;125.28;;;;;;;10.66;74.87;99899.59;5038261;28;20383;-60
2023/01/05 13:12:15;;;;;;;296.20;129.15;;;;;;;10.62;75.20;99900.94;5048722;28;20045;-57
2023/01/05 13:15:06;;;;;;;302.73;129.30;;;;;;;10.67;74.94;99899.41;5060049;28;20759;-59
2023/01/05 13:17:59;;;;;;;280.15;121.32;;;;;;;10.70;74.67;99901.75;5056502;28;20110;-59
2023/01/05 13:20:53;;;;;;;303.27;127.75;;;;;;;10.68;74.95;99911.69;5020347;28;20049;-59
2023/01/05 13:23:47;;;;;;;291.30;127.15;;;;;;;10.48;75.05;99912.97;5052927;28;20044;-60
2023/01/05 13:26:30;;;;;;;304.58;126.18;;;;;;;10.43;75.08;99903.84;5043311;28;20053;-62
2023/01/05 13:29:28;;;;;;;304.00;126.65;;;;;;;10.54;75.58;99911.47;5057032;28;20047;-59